Item Display Status Humidity-temperature Sensor

Elevation Above Sea Level: 3 m

 

Deployed Sensor

  • Serial Number: 61115783
  • NDBC Property Number: 36924
  • Start Date: 11/19/2018 (12:58:34 Z)
  • End Date: Currently Active
Relative Humidity [%]     6 entries per hour
Showing data from 2/25/2020 (19:20:00 Z) to 2/24/2020 (00:00:01 Z)
Previous Next [ Day | 3-Days | 7-Days ]
First Last
Prev [ Day | 3-Days | 7-Days ] Next
First Last

Start Time:     :
End Time:     :     
Time (in GMT) :00 :50 :40 :30 :20 :10
Previous Next [ Day | 3-Days | 7-Days ]
First Last
Prev [ Day | 3-Days | 7-Days ] Next
First Last


123 => good data
MM => data is determined as missing
-- => data not received/configured
Back to Top Back to Top
2/25/2020 20:00 to 19:10 -- -- -- -- 99.79 99.79
2/25/2020 19:00 to 18:10 99.79 99.79 99.79 99.79 99.79 99.79
2/25/2020 18:00 to 17:10 99.79 99.79 99.79 99.79 99.79 99.79
2/25/2020 17:00 to 16:10 99.79 99.79 99.79 99.79 99.79 99.79
2/25/2020 16:00 to 15:10 99.79 99.79 99.79 99.79 99.79 99.79
2/25/2020 15:00 to 14:10 99.79 99.79 99.77 99.77 99.79 99.79
2/25/2020 14:00 to 13:10 99.77 99.79 99.79 99.75 98.98 98.28
2/25/2020 13:00 to 12:10 98.12 97.98 97.26 97.34 97.35 97.10
2/25/2020 12:00 to 11:10 97.37 97.85 98.12 97.86 98.28 98.63
2/25/2020 11:00 to 10:10 99.02 99.43 99.57 99.77 99.77 99.79
2/25/2020 10:00 to 9:10 99.77 99.79 99.77 99.30 99.67 99.63
2/25/2020 09:00 to 8:10 99.63 99.65 99.75 99.63 99.61 99.79
2/25/2020 08:00 to 7:10 99.77 99.79 99.79 99.79 99.79 99.79
2/25/2020 07:00 to 6:10 99.79 99.79 99.79 99.77 99.79 99.79
2/25/2020 06:00 to 5:10 99.42 98.28 98.36 98.38 98.51 98.63
2/25/2020 05:00 to 4:10 98.77 98.77 99.04 99.24 99.57 99.79
2/25/2020 04:00 to 3:10 99.77 99.77 99.77 99.79 99.79 99.79
2/25/2020 03:00 to 2:10 99.79 99.79 99.79 99.79 99.79 99.79
2/25/2020 02:00 to 1:10 99.79 99.79 99.79 99.79 99.79 99.79
2/25/2020 01:00 to 0:10 99.79 99.79 99.79 99.79 99.79 99.79
2/25/2020 00:00 to 23:10 99.79 99.79 99.79 99.79 99.79 99.79
2/24/2020 23:00 to 22:10 99.79 99.79 99.79 99.79 99.79 99.79
2/24/2020 22:00 to 21:10 99.79 99.79 99.79 99.79 99.79 99.79
2/24/2020 21:00 to 20:10 99.79 99.79 99.79 99.79 99.79 99.79
2/24/2020 20:00 to 19:10 99.79 99.79 99.79 99.79 99.79 99.79
2/24/2020 19:00 to 18:10 99.79 99.79 99.79 99.79 99.79 99.79
2/24/2020 18:00 to 17:10 99.79 99.79 99.79 99.77 99.71 99.79
2/24/2020 17:00 to 16:10 99.79 99.79 99.79 99.69 99.45 98.47
2/24/2020 16:00 to 15:10 98.38 97.94 97.18 96.94 97.32 97.32
2/24/2020 15:00 to 14:10 97.86 97.85 97.47 97.55 98.18 98.94
2/24/2020 14:00 to 13:10 99.34 99.38 99.26 98.34 98.10 97.88
2/24/2020 13:00 to 12:10 97.47 97.18 96.94 97.18 97.32 97.14
2/24/2020 12:00 to 11:10 96.84 96.65 96.67 96.81 97.02 97.06
2/24/2020 11:00 to 10:10 97.28 97.18 97.06 97.08 97.51 97.63
2/24/2020 10:00 to 9:10 97.69 97.96 98.26 98.41 98.55 98.61
2/24/2020 09:00 to 8:10 98.65 98.55 98.73 98.96 99.08 99.20
2/24/2020 08:00 to 7:10 99.26 99.00 98.69 98.49 98.34 97.88
2/24/2020 07:00 to 6:10 97.96 97.86 97.59 97.10 96.67 96.16
2/24/2020 06:00 to 5:10 96.26 96.65 97.04 97.10 96.81 96.79
2/24/2020 05:00 to 4:10 96.73 96.45 97.24 97.55 97.77 97.65
2/24/2020 04:00 to 3:10 97.67 97.94 98.04 97.92 98.06 98.10
2/24/2020 03:00 to 2:10 98.18 98.10 98.49 98.85 99.08 98.89
2/24/2020 02:00 to 1:10 98.63 98.24 97.96 97.51 96.18 95.18
2/24/2020 01:00 to 0:10 95.04 95.61 95.98 95.76 95.37 95.20

 

 

 

Air Temperature [°C]     6 entries per hour
Showing data from 4/27/2020 (23:50:00 Z) to 4/26/2020 (00:00:01 Z)
Previous Next [ Day | 3-Days | 7-Days ]
First Last
Prev [ Day | 3-Days | 7-Days ] Next
First Last

Start Time:     :
End Time:     :     
Time (in GMT) :00 :50 :40 :30 :20 :10
Previous Next [ Day | 3-Days | 7-Days ]
First Last
Prev [ Day | 3-Days | 7-Days ] Next
First Last


123 => good data
MM => data is determined as missing
-- => data not received/configured
Back to Top Back to Top
4/28/2020 00:00 to 23:10 -- 25.77 25.91 25.93 25.92 25.81
4/27/2020 23:00 to 22:10 25.81 25.76 26.05 26.00 25.80 25.95
4/27/2020 22:00 to 21:10 26.19 25.92 25.87 26.09 25.79 25.82
4/27/2020 21:00 to 20:10 25.67 25.86 25.88 25.83 25.76 25.89
4/27/2020 20:00 to 19:10 25.64 25.86 25.83 25.76 25.75 25.72
4/27/2020 19:00 to 18:10 25.85 25.95 25.93 26.13 26.07 25.99
4/27/2020 18:00 to 17:10 25.84 25.89 25.88 26.02 25.91 26.03
4/27/2020 17:00 to 16:10 25.88 25.92 26.04 25.99 26.26 26.27
4/27/2020 16:00 to 15:10 26.22 26.26 26.23 26.58 26.63 26.92
4/27/2020 15:00 to 14:10 26.63 26.63 26.62 26.88 26.37 26.22
4/27/2020 14:00 to 13:10 26.32 26.19 26.12 26.29 26.40 26.35
4/27/2020 13:00 to 12:10 26.42 26.18 25.90 26.02 25.93 25.73
4/27/2020 12:00 to 11:10 25.88 25.98 26.06 25.96 26.17 26.45
4/27/2020 11:00 to 10:10 25.93 26.20 25.93 25.57 25.68 25.68
4/27/2020 10:00 to 9:10 25.59 25.44 25.61 25.69 25.95 25.93
4/27/2020 09:00 to 8:10 26.03 25.91 25.90 25.96 25.71 25.66
4/27/2020 08:00 to 7:10 25.75 25.78 25.98 25.59 25.69 25.75
4/27/2020 07:00 to 6:10 25.73 25.82 25.87 26.03 26.06 25.98
4/27/2020 06:00 to 5:10 26.05 25.98 26.04 26.00 26.18 26.17
4/27/2020 05:00 to 4:10 26.18 26.19 26.17 26.26 26.27 26.43
4/27/2020 04:00 to 3:10 26.30 26.58 26.82 26.63 26.75 26.61
4/27/2020 03:00 to 2:10 26.73 26.60 26.63 26.78 26.74 26.63
4/27/2020 02:00 to 1:10 26.74 26.74 26.67 26.66 26.94 26.91
4/27/2020 01:00 to 0:10 27.24 27.11 26.80 26.67 26.74 26.78
4/27/2020 00:00 to 23:10 26.73 26.59 26.81 26.82 26.71 26.75
4/26/2020 23:00 to 22:10 26.70 26.74 26.80 26.95 26.83 26.71
4/26/2020 22:00 to 21:10 26.60 26.89 26.78 26.68 26.90 26.75
4/26/2020 21:00 to 20:10 26.78 26.83 26.65 27.01 26.81 26.67
4/26/2020 20:00 to 19:10 26.94 26.81 27.00 26.87 26.74 26.87
4/26/2020 19:00 to 18:10 26.76 26.77 26.78 26.93 26.84 26.95
4/26/2020 18:00 to 17:10 26.83 26.80 26.93 26.88 26.72 26.95
4/26/2020 17:00 to 16:10 27.05 26.79 26.93 26.92 26.80 26.77
4/26/2020 16:00 to 15:10 26.91 26.67 26.72 26.67 26.92 26.74
4/26/2020 15:00 to 14:10 26.73 26.73 26.82 26.90 26.63 26.63
4/26/2020 14:00 to 13:10 26.85 26.92 26.77 26.75 26.94 26.81
4/26/2020 13:00 to 12:10 26.55 26.41 26.40 26.45 26.32 26.42
4/26/2020 12:00 to 11:10 26.44 26.39 26.33 26.43 26.28 26.28
4/26/2020 11:00 to 10:10 26.36 26.39 26.44 26.51 26.23 26.36
4/26/2020 10:00 to 9:10 26.36 26.24 26.42 26.26 26.49 26.31
4/26/2020 09:00 to 8:10 26.36 26.27 26.29 26.51 26.54 26.26
4/26/2020 08:00 to 7:10 26.30 26.52 26.44 26.64 26.89 27.08
4/26/2020 07:00 to 6:10 26.91 26.73 26.81 26.55 26.54 26.71
4/26/2020 06:00 to 5:10 26.57 26.71 26.71 26.74 26.67 26.71
4/26/2020 05:00 to 4:10 26.70 26.81 26.86 26.88 26.84 26.81
4/26/2020 04:00 to 3:10 26.80 26.75 26.64 26.75 26.79 26.87
4/26/2020 03:00 to 2:10 26.80 26.77 26.80 26.78 26.89 27.09
4/26/2020 02:00 to 1:10 26.85 26.77 27.00 26.99 27.10 27.23
4/26/2020 01:00 to 0:10 27.31 27.33 27.52 27.63 27.39 28.12